Fort Ann, NY (12827)

10:32 PM EDT on July 23, 2016 (GMT -0400)
George Street | | Change Station

Elev 164 ft 43.41 °N, 73.49 °W | Updated 5 seconds ago

Partly Cloudy
Partly Cloudy
62.4 °F
Feels Like 62.4 °F
N
0.0
Wind Variable Wind from ENE
Gusts 0.7 mph

Today
High -- | Low -- °F
--% Chance of Precip.
Yesterday
High -- | Low -- °F
Precip. -- in
Pressure 29.92 in
Visibility 2.0 miles
Clouds Few 200 ft
Dew Point 62 °F
Humidity 99%
Rainfall 0.05 in
Snow Depth Not available.
5:34 AM 8:25 PM
Waning Gibbous, 80% visible
SPECI KGFL 240227Z AUTO 00000KT 2SM BR FEW002 17/16 A2992 RMK AO2 T01720161
Pressure 29.92 in
Visibility 2.0 miles
Clouds Few 200 ft
Dew Point 62 °F
Humidity 99%
Rainfall 0.05 in
Snow Depth Not available.
5:34 AM 8:25 PM
Waning Gibbous, 80% visible
SPECI KGFL 240227Z AUTO 00000KT 2SM BR FEW002 17/16 A2992 RMK AO2 T01720161

10-Day Weather Forecast

Almanac

Astronomy

Jul. 23, 2016 Rise Set
Actual Time
Civil Twilight
Nautical Twilight
Astronomical Twilight
Moon
Length of Visible Light
Length of Day
Tomorrow will be .
, % of the Moon is Illuminated

Today's Extremes

State Highs State Lows

Community

WunderPhotos

Upload Photos

1,927,000 photos uploaded!

WunderBlog® & News

Nearby

Air Quality

  Air Quality AQ Index Pollutant
Not available.

Snow Depth

Station Depth Elevation

Earthquake Activity

City Distance Mag. Time & Date
Minimum magnitude displayed is 2.5.

Coastal Water Temperatures

Place Temperature

Stations

Nearby Weather Stations

Station Location Temp. Windchill Dew Point Humidity Wind Precip. Elev Updated Type
                   

Watches & Warnings

There are currently no watches in effect.